Time;durP1;ratioP1;P1;durP2;ratioP2;P2;SDS_P1;SDS_P2;PMS_P1;PMS_P2;Temp;Humidity;BMP_temperature;BMP_pressure;BME280_temperature;BME280_humidity;BME280_pressure;Samples;Min_cycle;Max_cycle;Signal;HPM_P1;HPM_P2
2023/08/04 00:01:23;;;;;;;14.70;1.50;;;;;;;;;;5002170;28;20475;-71
2023/08/04 00:05:03;;;;;;;7.40;1.35;;;;;;;;;;5004161;28;20056;-69
2023/08/04 00:08:43;;;;;;;12.10;1.73;;;;;;;;;;5001042;28;20613;-72
2023/08/04 00:12:24;;;;;;;6.70;1.33;;;;;;;;;;5003370;28;20058;-71
2023/08/04 00:16:05;;;;;;;10.10;1.50;;;;;;;;;;5000295;28;20048;-71
2023/08/04 00:19:44;;;;;;;9.55;1.58;;;;;;;;;;5000718;28;20627;-72
2023/08/04 00:23:25;;;;;;;8.43;1.30;;;;;;;;;;5000680;28;20049;-71
2023/08/04 00:27:05;;;;;;;9.55;1.52;;;;;;;;;;5001391;28;20127;-72
2023/08/04 00:30:46;;;;;;;10.32;1.63;;;;;;;;;;5001820;28;20077;-71
2023/08/04 00:34:26;;;;;;;5.45;1.20;;;;;;;;;;5000345;28;20396;-72
2023/08/04 00:38:06;;;;;;;5.50;1.55;;;;;;;;;;5015694;28;20059;-70
2023/08/04 00:41:46;;;;;;;11.60;1.98;;;;;;;;;;5001213;28;20128;-74
2023/08/04 00:45:27;;;;;;;4.97;1.50;;;;;;;;;;5000581;28;20061;-70
2023/08/04 00:49:07;;;;;;;8.23;1.27;;;;;;;;;;4999053;28;20057;-71
2023/08/04 00:52:47;;;;;;;8.52;1.52;;;;;;;;;;4999201;28;20045;-71
2023/08/04 00:56:28;;;;;;;8.43;1.50;;;;;;;;;;5001629;28;20113;-71
2023/08/04 01:00:08;;;;;;;7.25;1.48;;;;;;;;;;5000788;28;20048;-70
2023/08/04 01:03:48;;;;;;;5.50;1.50;;;;;;;;;;5000053;28;20063;-72
2023/08/04 01:07:40;;;;;;;5.13;1.40;;;;;;;;;;5000601;28;20409;-71
2023/08/04 01:11:24;;;;;;;7.90;1.33;;;;;;;;;;5003730;28;20458;-70
2023/08/04 01:15:04;;;;;;;3.67;1.15;;;;;;;;;;4999474;28;20567;-71
2023/08/04 01:18:44;;;;;;;10.68;1.67;;;;;;;;;;5000098;28;20330;-69
2023/08/04 01:22:25;;;;;;;9.50;1.30;;;;;;;;;;5001421;28;20033;-71
2023/08/04 01:26:09;;;;;;;8.90;1.42;;;;;;;;;;5003951;28;20632;-70
2023/08/04 01:29:45;;;;;;;6.25;1.55;;;;;;;;;;5002561;28;20124;-71
2023/08/04 01:33:25;;;;;;;7.60;1.40;;;;;;;;;;5003816;28;20067;-69
2023/08/04 01:37:06;;;;;;;4.50;1.27;;;;;;;;;;5000808;28;20044;-71
2023/08/04 01:40:46;;;;;;;8.30;1.63;;;;;;;;;;5003290;28;20526;-72
2023/08/04 01:44:26;;;;;;;5.15;1.20;;;;;;;;;;5004286;28;20080;-70
2023/08/04 01:48:07;;;;;;;5.15;1.20;;;;;;;;;;5005238;28;20041;-70
2023/08/04 01:51:47;;;;;;;6.97;1.35;;;;;;;;;;5006728;28;20049;-70
2023/08/04 01:55:27;;;;;;;5.95;1.30;;;;;;;;;;5004996;28;20178;-70
2023/08/04 01:59:08;;;;;;;4.78;1.42;;;;;;;;;;5002895;28;20041;-70
2023/08/04 02:02:48;;;;;;;6.60;1.40;;;;;;;;;;5006868;28;20424;-70
2023/08/04 02:06:29;;;;;;;6.00;1.60;;;;;;;;;;5005894;28;20048;-73
2023/08/04 02:10:09;;;;;;;16.85;1.40;;;;;;;;;;5007857;28;20099;-70
2023/08/04 02:13:49;;;;;;;10.43;1.70;;;;;;;;;;5003655;28;20128;-68
2023/08/04 02:17:30;;;;;;;9.43;2.00;;;;;;;;;;5005405;28;20470;-71
2023/08/04 02:21:10;;;;;;;8.02;1.70;;;;;;;;;;5007316;28;20057;-70
2023/08/04 02:24:51;;;;;;;13.77;1.70;;;;;;;;;;5006825;28;20140;-71
2023/08/04 02:28:32;;;;;;;10.70;1.80;;;;;;;;;;5003611;28;20605;-69
2023/08/04 02:32:12;;;;;;;9.65;1.50;;;;;;;;;;5003939;28;20056;-72
2023/08/04 02:35:52;;;;;;;5.38;1.48;;;;;;;;;;5005320;28;20697;-70
2023/08/04 02:39:33;;;;;;;13.82;1.98;;;;;;;;;;5004131;28;20064;-70
2023/08/04 02:43:13;;;;;;;9.57;1.85;;;;;;;;;;5004703;28;20147;-69
2023/08/04 02:46:53;;;;;;;5.90;1.52;;;;;;;;;;5005005;28;20458;-71
2023/08/04 02:50:34;;;;;;;6.50;1.50;;;;;;;;;;5004108;28;20053;-70
2023/08/04 02:54:14;;;;;;;8.95;1.60;;;;;;;;;;5002592;28;20162;-69
2023/08/04 02:57:54;;;;;;;4.93;1.35;;;;;;;;;;5009662;28;20820;-72
2023/08/04 03:01:34;;;;;;;6.03;1.60;;;;;;;;;;5006947;28;20187;-71
2023/08/04 03:05:15;;;;;;;5.07;1.10;;;;;;;;;;5008034;28;20050;-70
2023/08/04 03:08:55;;;;;;;7.93;1.30;;;;;;;;;;5002997;28;20128;-70
2023/08/04 03:12:36;;;;;;;10.65;1.17;;;;;;;;;;5005800;28;20050;-71
2023/08/04 03:16:16;;;;;;;4.20;1.10;;;;;;;;;;5004014;28;20460;-69
2023/08/04 03:19:56;;;;;;;4.90;1.58;;;;;;;;;;5003051;28;20050;-71
2023/08/04 03:23:37;;;;;;;10.50;1.70;;;;;;;;;;5001636;28;20403;-72
2023/08/04 03:27:17;;;;;;;7.57;1.90;;;;;;;;;;5003930;28;20042;-70
2023/08/04 03:30:57;;;;;;;7.30;1.60;;;;;;;;;;5004062;28;20457;-71
2023/08/04 03:34:37;;;;;;;8.82;1.63;;;;;;;;;;5004142;28;20089;-70
2023/08/04 03:38:18;;;;;;;7.40;1.70;;;;;;;;;;5003168;28;20617;-69
2023/08/04 03:41:58;;;;;;;9.15;1.40;;;;;;;;;;5002051;28;20123;-69
2023/08/04 03:45:38;;;;;;;9.68;1.95;;;;;;;;;;5002762;28;20133;-70
2023/08/04 03:49:19;;;;;;;12.05;1.60;;;;;;;;;;5001910;28;20053;-68
2023/08/04 03:52:59;;;;;;;9.43;1.80;;;;;;;;;;5004204;28;20041;-70
2023/08/04 03:56:39;;;;;;;4.57;1.60;;;;;;;;;;5003071;28;20088;-68
2023/08/04 04:00:20;;;;;;;7.15;1.88;;;;;;;;;;5003768;28;20136;-70
2023/08/04 04:04:01;;;;;;;7.95;1.70;;;;;;;;;;5002638;28;20442;-69
2023/08/04 04:07:42;;;;;;;14.10;2.25;;;;;;;;;;5002090;28;20057;-70
2023/08/04 04:11:22;;;;;;;7.35;2.00;;;;;;;;;;5010124;28;20057;-72
2023/08/04 04:15:04;;;;;;;7.50;1.70;;;;;;;;;;5003127;28;20077;-69
2023/08/04 04:18:43;;;;;;;8.93;2.10;;;;;;;;;;5002956;28;20059;-72
2023/08/04 04:22:23;;;;;;;10.73;1.80;;;;;;;;;;5003308;28;21054;-68
2023/08/04 04:26:07;;;;;;;6.25;1.67;;;;;;;;;;5006223;28;20555;-71
2023/08/04 04:29:44;;;;;;;10.10;1.80;;;;;;;;;;5001403;28;20056;-69
2023/08/04 04:33:24;;;;;;;7.40;1.77;;;;;;;;;;5004767;28;20510;-70
2023/08/04 04:37:04;;;;;;;8.27;1.77;;;;;;;;;;5001833;28;20080;-69
2023/08/04 04:40:45;;;;;;;10.85;1.90;;;;;;;;;;5002571;28;20048;-70
2023/08/04 04:44:25;;;;;;;8.70;1.80;;;;;;;;;;5003805;28;20068;-69
2023/08/04 04:48:05;;;;;;;8.02;1.80;;;;;;;;;;5000265;28;20223;-71
2023/08/04 04:51:46;;;;;;;9.25;1.88;;;;;;;;;;5001773;28;20653;-71
2023/08/04 04:55:26;;;;;;;10.30;1.90;;;;;;;;;;5003291;28;20045;-69
2023/08/04 04:59:06;;;;;;;10.77;1.70;;;;;;;;;;5001538;28;20186;-70
2023/08/04 05:02:47;;;;;;;5.32;1.95;;;;;;;;;;5001899;28;20053;-70
2023/08/04 05:06:27;;;;;;;12.35;1.92;;;;;;;;;;5004158;28;20131;-69
2023/08/04 05:10:08;;;;;;;8.65;1.83;;;;;;;;;;5002386;28;20045;-70
2023/08/04 05:13:48;;;;;;;6.47;1.50;;;;;;;;;;5006590;28;20053;-69
2023/08/04 05:17:28;;;;;;;10.80;1.70;;;;;;;;;;5013052;28;20076;-70
2023/08/04 05:21:09;;;;;;;4.07;1.35;;;;;;;;;;5007726;28;20099;-72
2023/08/04 05:24:49;;;;;;;11.27;1.67;;;;;;;;;;5007649;28;20042;-69
2023/08/04 05:28:47;;;;;;;5.35;1.30;;;;;;;;;;5006203;28;20057;-69
2023/08/04 05:32:27;;;;;;;11.98;1.60;;;;;;;;;;5005224;28;20050;-69
2023/08/04 05:36:08;;;;;;;7.47;1.60;;;;;;;;;;5005839;28;20042;-70
2023/08/04 05:39:49;;;;;;;6.72;1.58;;;;;;;;;;5007969;28;20124;-70
2023/08/04 05:43:29;;;;;;;3.83;1.45;;;;;;;;;;5005860;28;20053;-70
2023/08/04 05:47:09;;;;;;;7.50;1.50;;;;;;;;;;5006837;28;20125;-69
2023/08/04 05:50:50;;;;;;;8.05;2.08;;;;;;;;;;5005558;28;20045;-70
2023/08/04 05:54:30;;;;;;;9.05;1.60;;;;;;;;;;5008515;28;20384;-70
2023/08/04 05:58:10;;;;;;;6.13;1.48;;;;;;;;;;5005595;28;20041;-70
2023/08/04 06:01:50;;;;;;;8.55;1.60;;;;;;;;;;5005993;28;20060;-69
2023/08/04 06:05:31;;;;;;;11.55;1.73;;;;;;;;;;5005719;28;20049;-71
2023/08/04 06:09:12;;;;;;;10.30;1.50;;;;;;;;;;5007297;28;20038;-71
2023/08/04 06:12:53;;;;;;;10.80;1.60;;;;;;;;;;5006056;28;20179;-70
2023/08/04 06:16:33;;;;;;;5.40;1.42;;;;;;;;;;5006499;28;20060;-69
2023/08/04 06:20:13;;;;;;;6.47;1.55;;;;;;;;;;5006630;28;20054;-71
2023/08/04 06:23:54;;;;;;;5.22;1.42;;;;;;;;;;5003273;28;20084;-70
2023/08/04 06:27:34;;;;;;;4.63;1.60;;;;;;;;;;5004750;28;20233;-69
2023/08/04 06:31:14;;;;;;;9.43;1.50;;;;;;;;;;5006231;28;20106;-70
2023/08/04 06:34:55;;;;;;;10.95;1.73;;;;;;;;;;5006870;28;20577;-71
2023/08/04 06:38:35;;;;;;;5.55;1.50;;;;;;;;;;5005773;28;20166;-70
2023/08/04 06:42:16;;;;;;;10.43;1.65;;;;;;;;;;5005386;28;20125;-70
2023/08/04 06:45:56;;;;;;;6.45;1.45;;;;;;;;;;5006023;28;20526;-72
2023/08/04 06:49:36;;;;;;;5.25;1.73;;;;;;;;;;5005422;28;20084;-71
2023/08/04 06:53:17;;;;;;;4.82;1.38;;;;;;;;;;5003056;28;20137;-70
2023/08/04 06:56:58;;;;;;;7.80;2.03;;;;;;;;;;5008191;28;20159;-71
2023/08/04 07:00:38;;;;;;;7.57;1.70;;;;;;;;;;5004536;28;20053;-71
2023/08/04 07:04:18;;;;;;;6.22;1.70;;;;;;;;;;5002995;28;20057;-70
2023/08/04 07:07:59;;;;;;;6.38;1.60;;;;;;;;;;5004886;28;20061;-70
2023/08/04 07:10:59;;;;;;;5.28;1.70;;;;;;;;;;5007784;28;20053;-70
2023/08/04 07:13:25;;;;;;;6.03;1.40;;;;;;;;;;5003702;28;20076;-71
2023/08/04 07:15:55;;;;;;;6.30;1.52;;;;;;;;;;5005598;28;20058;-69
2023/08/04 07:18:21;;;;;;;4.97;1.42;;;;;;;;;;5005128;28;20111;-71
2023/08/04 07:20:47;;;;;;;9.23;1.73;;;;;;;;;;5005717;28;20042;-71
2023/08/04 07:23:13;;;;;;;8.68;2.10;;;;;;;;;;5004215;28;20053;-69
2023/08/04 07:25:39;;;;;;;7.00;1.77;;;;;;;;;;5004621;28;20495;-71
2023/08/04 07:28:05;;;;;;;10.73;2.47;;;;;;;;;;5003963;28;20057;-68
2023/08/04 07:30:32;;;;;;;8.25;2.00;;;;;;;;;;5006337;28;20080;-70
2023/08/04 07:32:58;;;;;;;20.77;2.55;;;;;;;;;;5004431;28;20057;-70
2023/08/04 07:35:24;;;;;;;5.07;1.40;;;;;;;;;;5005558;28;20060;-72
2023/08/04 07:37:51;;;;;;;5.63;1.40;;;;;;;;;;5004976;28;20053;-72
2023/08/04 07:40:16;;;;;;;3.78;1.30;;;;;;;;;;5005670;28;20385;-71
2023/08/04 07:42:42;;;;;;;8.27;1.42;;;;;;;;;;4998543;28;20049;-69
2023/08/04 07:45:09;;;;;;;7.68;1.40;;;;;;;;;;5003982;28;20936;-70
2023/08/04 07:47:35;;;;;;;8.90;1.30;;;;;;;;;;5002676;28;20065;-69
2023/08/04 07:50:01;;;;;;;5.47;1.38;;;;;;;;;;5002661;28;20069;-68
2023/08/04 07:52:27;;;;;;;7.20;1.58;;;;;;;;;;5006781;28;20076;-69
2023/08/04 07:54:53;;;;;;;7.10;1.52;;;;;;;;;;4997027;28;20053;-71
2023/08/04 07:57:19;;;;;;;4.97;1.05;;;;;;;;;;5005394;28;20175;-69
2023/08/04 07:59:47;;;;;;;5.72;1.40;;;;;;;;;;5004249;28;20073;-69
2023/08/04 08:02:13;;;;;;;4.47;1.35;;;;;;;;;;5004696;28;20411;-71
2023/08/04 08:04:38;;;;;;;6.45;1.60;;;;;;;;;;5007192;28;20057;-69
2023/08/04 08:07:05;;;;;;;4.60;1.60;;;;;;;;;;5004142;28;20411;-67
2023/08/04 08:09:30;;;;;;;5.38;1.40;;;;;;;;;;5005572;28;20053;-69
2023/08/04 08:11:58;;;;;;;4.55;1.55;;;;;;;;;;5004275;28;20095;-70
2023/08/04 08:14:25;;;;;;;3.03;1.30;;;;;;;;;;5005882;28;20068;-69
2023/08/04 08:16:51;;;;;;;5.72;1.33;;;;;;;;;;5002143;28;20065;-66
2023/08/04 08:19:17;;;;;;;3.30;1.10;;;;;;;;;;5002673;28;20075;-68
2023/08/04 08:21:47;;;;;;;2.65;0.77;;;;;;;;;;4997626;28;20063;-68
2023/08/04 08:24:12;;;;;;;2.72;1.10;;;;;;;;;;5001609;28;20453;-70
2023/08/04 08:26:41;;;;;;;2.10;0.90;;;;;;;;;;5004562;28;20037;-69
2023/08/04 08:29:07;;;;;;;3.40;1.00;;;;;;;;;;5005649;28;20049;-70
2023/08/04 08:31:33;;;;;;;6.22;1.05;;;;;;;;;;4999978;28;20053;-71
2023/08/04 08:33:59;;;;;;;4.57;1.00;;;;;;;;;;5002134;28;20522;-71
2023/08/04 08:36:25;;;;;;;8.57;1.00;;;;;;;;;;5000375;28;20057;-69
2023/08/04 08:38:51;;;;;;;7.40;1.02;;;;;;;;;;5002700;28;20077;-70
2023/08/04 08:41:18;;;;;;;4.03;1.20;;;;;;;;;;4996987;28;22629;-71
2023/08/04 08:43:44;;;;;;;3.13;0.90;;;;;;;;;;5003593;28;20041;-70
2023/08/04 08:46:11;;;;;;;7.15;0.93;;;;;;;;;;5002478;28;20053;-70
2023/08/04 08:48:39;;;;;;;3.13;1.00;;;;;;;;;;4993700;28;20079;-70
2023/08/04 08:51:14;;;;;;;4.57;0.88;;;;;;;;;;5004270;28;20064;-71
2023/08/04 08:53:43;;;;;;;4.72;1.00;;;;;;;;;;5004431;28;20051;-70
2023/08/04 08:56:10;;;;;;;5.70;1.15;;;;;;;;;;5005912;28;20058;-70
2023/08/04 08:58:37;;;;;;;6.18;1.05;;;;;;;;;;5002424;28;21791;-68
2023/08/04 09:01:04;;;;;;;3.75;1.17;;;;;;;;;;5004767;28;20042;-69
2023/08/04 09:03:36;;;;;;;5.07;1.00;;;;;;;;;;5001598;28;20059;-69
2023/08/04 09:06:03;;;;;;;7.20;1.05;;;;;;;;;;4997346;28;20041;-69
2023/08/04 09:08:29;;;;;;;7.32;1.10;;;;;;;;;;4998898;28;20084;-68
2023/08/04 09:11:00;;;;;;;3.55;0.90;;;;;;;;;;5006645;28;20140;-69
2023/08/04 09:13:26;;;;;;;3.33;0.90;;;;;;;;;;5000603;28;20148;-69
2023/08/04 09:15:54;;;;;;;6.28;1.00;;;;;;;;;;5000390;28;20648;-69
2023/08/04 09:18:27;;;;;;;3.38;0.88;;;;;;;;;;4999108;28;20067;-66
2023/08/04 09:21:08;;;;;;;2.72;1.00;;;;;;;;;;5000075;28;20073;-70
2023/08/04 09:23:41;;;;;;;7.72;1.10;;;;;;;;;;5002874;28;20106;-69
2023/08/04 09:26:07;;;;;;;1.63;0.75;;;;;;;;;;5005084;28;20103;-70
2023/08/04 09:28:33;;;;;;;5.45;1.35;;;;;;;;;;5001744;28;20050;-68
2023/08/04 09:31:13;;;;;;;3.15;0.90;;;;;;;;;;5003351;28;20518;-69
2023/08/04 09:33:43;;;;;;;8.18;1.05;;;;;;;;;;5002419;28;20053;-66
2023/08/04 09:36:11;;;;;;;5.03;0.80;;;;;;;;;;5002806;28;20069;-68
2023/08/04 09:38:38;;;;;;;4.90;1.10;;;;;;;;;;4999802;28;20092;-68
2023/08/04 09:41:08;;;;;;;4.50;1.27;;;;;;;;;;5002938;28;20046;-68
2023/08/04 09:43:34;;;;;;;5.70;1.10;;;;;;;;;;4999412;28;20148;-68
2023/08/04 09:46:06;;;;;;;2.72;0.98;;;;;;;;;;5003604;28;20053;-69
2023/08/04 09:48:33;;;;;;;3.85;1.17;;;;;;;;;;5000444;28;20061;-68
2023/08/04 09:51:28;;;;;;;2.17;1.08;;;;;;;;;;4997322;28;20065;-70
2023/08/04 09:55:10;;;;;;;4.82;1.25;;;;;;;;;;5003145;28;20053;-68
2023/08/04 09:58:48;;;;;;;4.53;1.20;;;;;;;;;;4995723;28;20065;-69
2023/08/04 10:02:29;;;;;;;4.68;1.40;;;;;;;;;;4999268;28;20466;-68
2023/08/04 10:06:09;;;;;;;6.18;1.20;;;;;;;;;;5000383;28;20061;-68
2023/08/04 10:09:49;;;;;;;3.53;1.10;;;;;;;;;;5004305;28;20128;-67
2023/08/04 10:13:30;;;;;;;3.15;1.13;;;;;;;;;;5003975;28;20056;-69
2023/08/04 10:17:10;;;;;;;5.05;1.08;;;;;;;;;;5006569;28;20057;-69
2023/08/04 10:20:53;;;;;;;2.67;1.13;;;;;;;;;;5005561;28;20049;-70
2023/08/04 10:24:33;;;;;;;2.28;0.90;;;;;;;;;;5003875;28;20049;-68
2023/08/04 10:28:14;;;;;;;3.38;1.00;;;;;;;;;;5001594;28;20124;-68
2023/08/04 10:31:43;;;;;;;2.85;1.08;;;;;;;;;;5002578;28;20128;-68
2023/08/04 10:35:26;;;;;;;3.55;1.08;;;;;;;;;;5000532;28;20066;-68
2023/08/04 10:39:06;;;;;;;2.00;1.20;;;;;;;;;;5000304;28;20058;-69
2023/08/04 10:42:28;;;;;;;2.97;1.00;;;;;;;;;;5001303;28;20045;-69
2023/08/04 10:45:43;;;;;;;4.72;1.25;;;;;;;;;;4999718;28;20041;-68
2023/08/04 10:49:23;;;;;;;4.85;1.20;;;;;;;;;;4997321;28;20406;-70
2023/08/04 10:53:03;;;;;;;6.93;1.52;;;;;;;;;;5000187;28;20041;-69
2023/08/04 10:56:44;;;;;;;5.43;1.40;;;;;;;;;;5002726;28;20819;-68
2023/08/04 11:00:14;;;;;;;5.10;1.25;;;;;;;;;;5004180;28;20045;-69
2023/08/04 11:04:00;;;;;;;4.60;1.05;;;;;;;;;;5001421;28;20091;-70
2023/08/04 11:07:40;;;;;;;2.55;1.27;;;;;;;;;;5001412;28;20594;-70
2023/08/04 11:11:24;;;;;;;6.72;1.15;;;;;;;;;;5004299;28;20389;-70
2023/08/04 11:14:18;;;;;;;6.78;1.52;;;;;;;;;;5001801;28;20037;-67
2023/08/04 11:17:30;;;;;;;3.97;1.20;;;;;;;;;;4997494;28;20427;-72
2023/08/04 11:20:47;;;;;;;7.57;1.33;;;;;;;;;;5000128;28;20102;-70
2023/08/04 11:23:52;;;;;;;5.72;1.27;;;;;;;;;;4998542;28;20057;-71
2023/08/04 11:27:33;;;;;;;4.35;1.15;;;;;;;;;;4999374;28;20432;-67
2023/08/04 11:31:13;;;;;;;3.75;1.00;;;;;;;;;;5000983;28;20065;-72
2023/08/04 11:34:54;;;;;;;6.28;1.20;;;;;;;;;;5003553;28;20061;-73
2023/08/04 11:37:54;;;;;;;4.05;1.20;;;;;;;;;;4998430;28;20559;-68
2023/08/04 11:40:25;;;;;;;3.75;1.30;;;;;;;;;;5003145;28;20240;-69
2023/08/04 11:43:33;;;;;;;3.05;1.00;;;;;;;;;;4997108;28;20061;-71
2023/08/04 11:47:13;;;;;;;2.53;1.10;;;;;;;;;;5003565;28;20164;-68
2023/08/04 11:50:54;;;;;;;2.85;0.98;;;;;;;;;;5003698;28;20057;-69
2023/08/04 11:54:36;;;;;;;3.17;0.90;;;;;;;;;;5002925;28;20057;-69
2023/08/04 11:58:17;;;;;;;2.53;1.00;;;;;;;;;;5001127;28;20492;-68
2023/08/04 12:01:04;;;;;;;4.65;1.10;;;;;;;;;;5004034;28;20140;-68
2023/08/04 12:03:48;;;;;;;7.55;1.42;;;;;;;;;;5002882;28;20778;-70
2023/08/04 12:06:19;;;;;;;3.50;1.17;;;;;;;;;;5001222;28;20072;-69
2023/08/04 12:08:56;;;;;;;3.30;1.15;;;;;;;;;;5002506;28;20049;-69
2023/08/04 12:11:26;;;;;;;6.90;1.33;;;;;;;;;;5000693;28;20053;-68
2023/08/04 12:14:05;;;;;;;6.47;1.10;;;;;;;;;;4999096;28;20057;-68
2023/08/04 12:16:31;;;;;;;4.28;1.20;;;;;;;;;;5003469;28;20226;-69
2023/08/04 12:19:06;;;;;;;4.90;1.30;;;;;;;;;;5000161;28;20498;-69
2023/08/04 12:21:32;;;;;;;3.70;1.20;;;;;;;;;;5002025;28;20057;-68
2023/08/04 12:23:58;;;;;;;6.88;1.98;;;;;;;;;;5003151;28;20057;-67
2023/08/04 12:26:24;;;;;;;5.65;1.25;;;;;;;;;;5001216;28;20624;-67
2023/08/04 12:28:50;;;;;;;4.25;1.20;;;;;;;;;;4999236;28;20084;-68
2023/08/04 12:31:16;;;;;;;3.83;1.05;;;;;;;;;;5001072;28;20107;-69
2023/08/04 12:33:43;;;;;;;2.42;1.00;;;;;;;;;;5001338;28;20678;-70
2023/08/04 12:36:09;;;;;;;5.38;1.13;;;;;;;;;;5000168;28;20061;-69
2023/08/04 12:38:35;;;;;;;6.65;1.13;;;;;;;;;;5001274;28;20072;-68
2023/08/04 12:41:01;;;;;;;2.85;1.10;;;;;;;;;;5001976;28;20084;-68
2023/08/04 12:43:27;;;;;;;3.78;0.93;;;;;;;;;;5000266;28;20065;-66
2023/08/04 12:45:53;;;;;;;3.28;0.98;;;;;;;;;;5002420;28;20092;-67
2023/08/04 12:48:18;;;;;;;7.20;1.42;;;;;;;;;;5002850;28;20445;-66
2023/08/04 12:50:45;;;;;;;3.78;0.90;;;;;;;;;;4996894;28;20149;-67
2023/08/04 12:53:13;;;;;;;3.80;1.10;;;;;;;;;;4997782;28;20068;-68
2023/08/04 12:55:39;;;;;;;4.93;1.23;;;;;;;;;;5001578;28;20041;-69
2023/08/04 12:58:05;;;;;;;2.70;1.08;;;;;;;;;;4998701;28;20065;-70
2023/08/04 13:00:31;;;;;;;3.63;0.90;;;;;;;;;;4999228;28;20054;-68
2023/08/04 13:02:56;;;;;;;2.92;0.98;;;;;;;;;;4997470;28;20426;-68
2023/08/04 13:05:24;;;;;;;2.25;1.10;;;;;;;;;;4999326;28;20272;-69
2023/08/04 13:07:50;;;;;;;5.95;1.60;;;;;;;;;;5002889;28;20112;-69
2023/08/04 13:10:16;;;;;;;13.15;2.35;;;;;;;;;;5007750;28;20061;-67
2023/08/04 13:12:42;;;;;;;11.90;1.60;;;;;;;;;;4997049;28;20064;-69
2023/08/04 13:15:08;;;;;;;4.70;1.25;;;;;;;;;;5002343;28;20041;-68
2023/08/04 13:17:34;;;;;;;3.78;1.20;;;;;;;;;;4999814;28;20050;-69
2023/08/04 13:20:00;;;;;;;4.90;1.30;;;;;;;;;;4997420;28;20046;-69
2023/08/04 13:22:26;;;;;;;7.57;1.05;;;;;;;;;;4995934;28;20099;-72
2023/08/04 13:24:53;;;;;;;4.72;1.00;;;;;;;;;;4999605;28;20068;-67
2023/08/04 13:27:18;;;;;;;4.35;1.00;;;;;;;;;;4998020;28;20057;-66
2023/08/04 13:29:47;;;;;;;5.07;1.10;;;;;;;;;;4999822;28;20550;-70
2023/08/04 13:32:12;;;;;;;2.65;0.70;;;;;;;;;;4997601;28;20345;-69
2023/08/04 13:34:38;;;;;;;4.53;0.80;;;;;;;;;;5000321;28;20483;-70
2023/08/04 13:37:04;;;;;;;2.60;0.93;;;;;;;;;;5003573;28;20077;-68
2023/08/04 13:39:30;;;;;;;6.53;1.08;;;;;;;;;;5007628;28;20061;-69
2023/08/04 13:41:56;;;;;;;3.33;0.90;;;;;;;;;;5003719;28;20166;-71
2023/08/04 13:44:22;;;;;;;8.93;1.05;;;;;;;;;;5002975;28;20084;-72
2023/08/04 13:46:48;;;;;;;5.43;1.20;;;;;;;;;;5003830;28;20164;-69
2023/08/04 13:49:15;;;;;;;7.60;1.20;;;;;;;;;;5007846;28;20073;-70
2023/08/04 13:51:40;;;;;;;2.10;0.70;;;;;;;;;;5006224;28;20572;-71
2023/08/04 13:54:06;;;;;;;3.80;0.88;;;;;;;;;;5004772;28;20065;-69
2023/08/04 13:56:33;;;;;;;5.47;1.00;;;;;;;;;;5002720;28;20049;-70
2023/08/04 13:58:59;;;;;;;1.65;0.80;;;;;;;;;;5004365;28;20053;-69
2023/08/04 14:01:25;;;;;;;4.22;0.95;;;;;;;;;;5004270;28;20128;-71
2023/08/04 14:03:51;;;;;;;4.38;1.00;;;;;;;;;;5006091;28;20118;-68
2023/08/04 14:06:17;;;;;;;4.32;0.75;;;;;;;;;;5007598;28;20053;-68
2023/08/04 14:08:43;;;;;;;3.10;0.98;;;;;;;;;;4999884;28;20064;-68
2023/08/04 14:11:09;;;;;;;3.88;0.90;;;;;;;;;;5008955;28;20057;-71
2023/08/04 14:13:35;;;;;;;4.85;0.90;;;;;;;;;;5002322;28;20045;-69
2023/08/04 14:16:14;;;;;;;1.60;0.77;;;;;;;;;;5005724;28;20068;-66
2023/08/04 14:18:41;;;;;;;3.17;0.80;;;;;;;;;;5002171;28;21407;-70
2023/08/04 14:21:08;;;;;;;6.55;1.08;;;;;;;;;;5012628;28;20053;-69
2023/08/04 14:23:34;;;;;;;2.55;0.90;;;;;;;;;;5005251;28;20486;-66
2023/08/04 14:26:02;;;;;;;4.93;1.35;;;;;;;;;;5004919;28;20062;-67
2023/08/04 14:28:28;;;;;;;6.00;1.38;;;;;;;;;;5002220;28;20057;-68
2023/08/04 14:30:55;;;;;;;3.05;1.10;;;;;;;;;;5004436;28;20049;-69
2023/08/04 14:33:21;;;;;;;3.83;1.20;;;;;;;;;;5003559;28;20061;-68
2023/08/04 14:35:47;;;;;;;3.67;1.27;;;;;;;;;;5004947;28;20513;-69
2023/08/04 14:38:14;;;;;;;6.90;1.00;;;;;;;;;;5004514;28;20073;-68
2023/08/04 14:40:41;;;;;;;3.78;1.10;;;;;;;;;;5009547;28;20439;-70
2023/08/04 14:43:07;;;;;;;3.70;1.10;;;;;;;;;;5003502;28;20053;-68
2023/08/04 14:45:32;;;;;;;3.22;1.20;;;;;;;;;;5003992;28;20483;-70
2023/08/04 14:47:58;;;;;;;4.63;0.93;;;;;;;;;;4999304;28;20064;-68
2023/08/04 14:50:24;;;;;;;6.18;0.98;;;;;;;;;;5001175;28;20450;-69
2023/08/04 14:52:50;;;;;;;6.68;1.40;;;;;;;;;;5008504;28;20057;-68
2023/08/04 14:55:16;;;;;;;3.92;1.05;;;;;;;;;;5005470;28;20455;-68
2023/08/04 14:57:42;;;;;;;5.93;1.08;;;;;;;;;;5006051;28;20125;-68
2023/08/04 15:00:08;;;;;;;1.58;0.90;;;;;;;;;;5004512;28;20108;-66
2023/08/04 15:02:35;;;;;;;4.43;1.00;;;;;;;;;;5004032;28;20052;-66
2023/08/04 15:05:01;;;;;;;1.85;1.05;;;;;;;;;;5003662;28;20106;-68
2023/08/04 15:07:28;;;;;;;5.60;0.80;;;;;;;;;;4998406;28;20137;-65
2023/08/04 15:09:54;;;;;;;3.90;1.00;;;;;;;;;;5007965;28;20065;-68
2023/08/04 15:12:20;;;;;;;4.10;1.15;;;;;;;;;;4999902;28;20408;-68
2023/08/04 15:14:46;;;;;;;4.78;0.93;;;;;;;;;;5005028;28;20072;-72
2023/08/04 15:17:12;;;;;;;2.58;1.00;;;;;;;;;;5003208;28;20045;-70
2023/08/04 15:19:41;;;;;;;3.42;1.10;;;;;;;;;;5002143;28;20056;-69
2023/08/04 15:22:11;;;;;;;2.97;1.00;;;;;;;;;;5000357;28;20053;-69
2023/08/04 15:24:37;;;;;;;5.65;0.90;;;;;;;;;;5001664;28;20053;-69
2023/08/04 15:27:04;;;;;;;5.15;1.10;;;;;;;;;;5001821;28;20107;-71
2023/08/04 15:29:31;;;;;;;4.07;0.90;;;;;;;;;;5003847;28;20049;-69
2023/08/04 15:31:57;;;;;;;9.18;1.08;;;;;;;;;;5002670;28;20038;-70
2023/08/04 15:34:23;;;;;;;5.22;1.30;;;;;;;;;;5005844;28;20103;-69
2023/08/04 15:36:50;;;;;;;3.80;0.77;;;;;;;;;;5003100;28;20053;-69
2023/08/04 15:39:16;;;;;;;2.08;1.00;;;;;;;;;;5004756;28;20049;-70
2023/08/04 15:41:42;;;;;;;9.60;1.10;;;;;;;;;;5018752;28;20053;-72
2023/08/04 15:44:08;;;;;;;9.07;0.88;;;;;;;;;;5004577;28;20049;-69
2023/08/04 15:46:34;;;;;;;4.18;1.38;;;;;;;;;;5003628;28;20061;-70
2023/08/04 15:49:00;;;;;;;4.25;1.38;;;;;;;;;;5005696;28;20048;-69
2023/08/04 15:51:26;;;;;;;4.35;1.15;;;;;;;;;;5002856;28;20057;-69
2023/08/04 15:53:52;;;;;;;5.75;1.00;;;;;;;;;;5005636;28;20403;-70
2023/08/04 15:56:18;;;;;;;6.90;1.15;;;;;;;;;;5002322;28;20060;-71
2023/08/04 15:58:43;;;;;;;2.80;0.82;;;;;;;;;;5004904;28;20061;-69
2023/08/04 16:01:09;;;;;;;4.00;0.98;;;;;;;;;;5005735;28;20051;-69
2023/08/04 16:03:35;;;;;;;3.50;0.90;;;;;;;;;;5001135;28;20104;-69
2023/08/04 16:06:02;;;;;;;9.02;1.20;;;;;;;;;;5004158;28;20065;-71
2023/08/04 16:08:28;;;;;;;3.45;0.82;;;;;;;;;;5004044;28;20045;-71
2023/08/04 16:11:05;;;;;;;2.13;0.80;;;;;;;;;;5008949;28;20049;-70
2023/08/04 16:13:32;;;;;;;3.13;1.00;;;;;;;;;;5004020;28;20054;-70
2023/08/04 16:16:02;;;;;;;3.15;0.80;;;;;;;;;;5002339;28;20065;-69
2023/08/04 16:18:32;;;;;;;4.55;1.17;;;;;;;;;;5003677;28;20749;-70
2023/08/04 16:21:00;;;;;;;6.88;1.00;;;;;;;;;;5003516;28;20049;-69
2023/08/04 16:23:26;;;;;;;3.63;1.05;;;;;;;;;;5002267;28;20053;-68
2023/08/04 16:25:52;;;;;;;4.65;1.02;;;;;;;;;;5003694;28;20060;-70
2023/08/04 16:28:18;;;;;;;3.28;1.13;;;;;;;;;;5005010;28;20415;-69
2023/08/04 16:30:44;;;;;;;3.15;1.00;;;;;;;;;;5004919;28;20427;-69
2023/08/04 16:33:11;;;;;;;8.75;1.00;;;;;;;;;;5002606;28;22634;-69
2023/08/04 16:35:42;;;;;;;4.82;0.98;;;;;;;;;;5003502;28;21601;-71
2023/08/04 16:38:09;;;;;;;3.55;1.00;;;;;;;;;;5000399;28;20605;-69
2023/08/04 16:40:35;;;;;;;3.67;0.82;;;;;;;;;;5019907;28;20075;-68
2023/08/04 16:43:01;;;;;;;10.35;1.10;;;;;;;;;;5002924;28;20384;-70
2023/08/04 16:45:27;;;;;;;4.70;1.00;;;;;;;;;;5004467;28;20080;-69
2023/08/04 16:47:53;;;;;;;1.83;0.80;;;;;;;;;;5001817;28;20049;-70
2023/08/04 16:50:19;;;;;;;4.68;0.70;;;;;;;;;;5004156;28;20057;-69
2023/08/04 16:52:45;;;;;;;4.25;1.10;;;;;;;;;;5000430;28;20053;-71
2023/08/04 16:55:11;;;;;;;5.88;0.98;;;;;;;;;;5006570;28;20061;-68
2023/08/04 16:57:38;;;;;;;4.90;0.90;;;;;;;;;;5002203;28;20064;-71
2023/08/04 17:00:07;;;;;;;4.22;0.80;;;;;;;;;;5003751;28;20450;-69
2023/08/04 17:02:34;;;;;;;7.80;0.90;;;;;;;;;;5005595;28;20545;-71
2023/08/04 17:05:00;;;;;;;3.70;0.98;;;;;;;;;;5006018;28;20053;-71
2023/08/04 17:07:26;;;;;;;8.10;0.90;;;;;;;;;;5003898;28;20071;-71
2023/08/04 17:09:57;;;;;;;4.55;0.90;;;;;;;;;;5025254;28;20041;-68
2023/08/04 17:12:23;;;;;;;4.53;0.80;;;;;;;;;;5019168;28;20042;-70
2023/08/04 17:14:53;;;;;;;5.78;1.10;;;;;;;;;;5009688;28;20065;-70
2023/08/04 17:17:20;;;;;;;6.18;0.93;;;;;;;;;;5009191;28;20048;-69
2023/08/04 17:19:46;;;;;;;2.88;0.90;;;;;;;;;;5009552;28;20060;-72
2023/08/04 17:22:13;;;;;;;2.97;0.88;;;;;;;;;;5006751;28;20053;-69
2023/08/04 17:24:39;;;;;;;6.45;0.90;;;;;;;;;;5010700;28;20083;-69
2023/08/04 17:27:08;;;;;;;4.68;0.90;;;;;;;;;;5007699;28;20092;-69
2023/08/04 17:29:34;;;;;;;4.97;1.10;;;;;;;;;;5010807;28;20483;-72
2023/08/04 17:32:02;;;;;;;4.13;0.90;;;;;;;;;;5012052;28;20059;-69
2023/08/04 17:34:29;;;;;;;3.50;0.90;;;;;;;;;;5013632;28;20101;-71
2023/08/04 17:36:55;;;;;;;5.80;1.02;;;;;;;;;;5009151;28;20077;-70
2023/08/04 17:39:21;;;;;;;3.50;0.95;;;;;;;;;;5008525;28;20071;-71
2023/08/04 17:41:48;;;;;;;5.38;1.20;;;;;;;;;;5006473;28;20133;-70